Time,TemperatureF,DewpointF,PressureIn,WindDirection,WindDirectionDegrees,WindSpeedMPH,WindSpeedGustMPH,Humidity,HourlyPrecipIn,Conditions,Clouds,dailyrainin,SoftwareType,DateUTC
2013-10-12 00:22:00,50.0,48.0,29.99,WSW,237,5.0,-999.0,94,-99.99,,,-99.99,,2013-10-12 07:22:00,
2013-10-12 00:32:00,50.0,48.0,29.99,WSW,237,5.0,-999.0,94,-99.99,,,-99.99,,2013-10-12 07:32:00,
2013-10-12 00:42:00,50.0,48.0,29.99,WSW,237,5.0,-999.0,94,-99.99,,,-99.99,,2013-10-12 07:42:00,
2013-10-12 00:52:00,50.0,48.0,29.99,WSW,237,5.0,-999.0,94,-99.99,,,-99.99,,2013-10-12 07:52:00,
2013-10-12 01:02:00,50.0,48.0,29.99,WSW,237,5.0,-999.0,94,-99.99,,,-99.99,,2013-10-12 08:02:00,
2013-10-12 02:22:00,50.0,48.0,29.99,South,180,5.0,-999.0,94,-99.99,,,-99.99,,2013-10-12 09:22:00,
2013-10-12 02:33:00,50.0,48.0,29.99,South,180,5.0,-999.0,94,-99.99,,,-99.99,,2013-10-12 09:33:00,
2013-10-12 02:54:00,50.0,48.0,29.99,South,180,5.0,-999.0,94,-99.99,,,-99.99,,2013-10-12 09:54:00,
2013-10-12 03:03:00,50.0,48.0,29.99,South,180,5.0,-999.0,94,-99.99,,,-99.99,,2013-10-12 10:03:00,
2013-10-12 04:22:00,49.0,47.0,29.97,SSW,192,3.0,-999.0,94,-99.99,,,-99.99,,2013-10-12 11:22:00,
2013-10-12 04:33:00,49.0,47.0,29.97,SSW,192,3.0,-999.0,94,-99.99,,,-99.99,,2013-10-12 11:33:00,
2013-10-12 04:52:00,49.0,47.0,29.97,SSW,192,3.0,-999.0,94,-99.99,,,-99.99,,2013-10-12 11:52:00,
2013-10-12 05:01:00,49.0,47.0,29.97,SSW,192,3.0,-999.0,94,-99.99,,,-99.99,,2013-10-12 12:01:00,
2013-10-12 06:22:00,48.0,46.0,29.97,SW,221,0.0,-999.0,94,-99.99,,,-99.99,,2013-10-12 13:22:00,
2013-10-12 06:32:00,48.0,46.0,29.97,SW,221,0.0,-999.0,94,-99.99,,,-99.99,,2013-10-12 13:32:00,
2013-10-12 06:42:00,48.0,46.0,29.97,SW,221,0.0,-999.0,94,-99.99,,,-99.99,,2013-10-12 13:42:00,
2013-10-12 06:52:00,48.0,46.0,29.97,SW,221,0.0,-999.0,94,-99.99,,,-99.99,,2013-10-12 13:52:00,
2013-10-12 07:02:00,48.0,46.0,29.97,SW,221,0.0,-999.0,94,-99.99,,,-99.99,,2013-10-12 14:02:00,
2013-10-12 08:22:00,49.0,47.0,29.98,SW,219,1.0,-999.0,94,-99.99,,,-99.99,,2013-10-12 15:22:00,
2013-10-12 08:33:00,49.0,47.0,29.98,SW,219,1.0,-999.0,94,-99.99,,,-99.99,,2013-10-12 15:33:00,
2013-10-12 08:44:00,49.0,47.0,29.98,SW,219,1.0,-999.0,94,-99.99,,,-99.99,,2013-10-12 15:44:00,
2013-10-12 08:53:00,49.0,47.0,29.98,SW,219,1.0,-999.0,94,-99.99,,,-99.99,,2013-10-12 15:53:00,
2013-10-12 09:03:00,49.0,47.0,29.98,SW,219,1.0,-999.0,94,-99.99,,,-99.99,,2013-10-12 16:03:00,
2013-10-12 10:23:00,49.0,48.0,29.99,SSW,200,5.0,-999.0,95,-99.99,,,-99.99,,2013-10-12 17:23:00,
2013-10-12 10:34:00,49.0,48.0,29.99,SSW,200,5.0,-999.0,95,-99.99,,,-99.99,,2013-10-12 17:34:00,
2013-10-12 10:42:00,49.0,48.0,29.99,SSW,200,5.0,-999.0,95,-99.99,,,-99.99,,2013-10-12 17:42:00,
2013-10-12 10:53:00,49.0,48.0,29.99,SSW,200,5.0,-999.0,95,-99.99,,,-99.99,,2013-10-12 17:53:00,
2013-10-12 11:02:00,49.0,48.0,29.99,SSW,200,5.0,-999.0,95,-99.99,,,-99.99,,2013-10-12 18:02:00,
2013-10-12 12:22:00,53.0,50.0,29.98,South,169,7.0,-999.0,89,-99.99,,,-99.99,,2013-10-12 19:22:00,
2013-10-12 12:32:00,53.0,50.0,29.98,South,169,7.0,-999.0,89,-99.99,,,-99.99,,2013-10-12 19:32:00,
2013-10-12 12:42:00,53.0,50.0,29.98,South,169,7.0,-999.0,89,-99.99,,,-99.99,,2013-10-12 19:42:00,
2013-10-12 12:52:00,53.0,50.0,29.98,South,169,7.0,-999.0,89,-99.99,,,-99.99,,2013-10-12 19:52:00,
2013-10-12 13:03:00,53.0,50.0,29.98,South,169,7.0,-999.0,89,-99.99,,,-99.99,,2013-10-12 20:03:00,
2013-10-12 14:04:00,53.0,49.0,29.93,SSE,163,10.0,-999.0,87,-99.99,,,-99.99,,2013-10-12 21:04:00,
2013-10-12 14:22:00,53.0,49.0,29.93,SSE,163,10.0,-999.0,87,-99.99,,,-99.99,,2013-10-12 21:22:00,
2013-10-12 14:35:00,53.0,49.0,29.93,SSE,163,10.0,-999.0,87,-99.99,,,-99.99,,2013-10-12 21:35:00,
2013-10-12 14:43:00,53.0,49.0,29.93,SSE,163,10.0,-999.0,87,-99.99,,,-99.99,,2013-10-12 21:43:00,
2013-10-12 14:54:00,53.0,49.0,29.93,SSE,163,10.0,-999.0,87,-99.99,,,-99.99,,2013-10-12 21:54:00,
2013-10-12 16:22:00,53.0,49.0,29.91,WSW,242,18.0,-999.0,86,-99.99,,,-99.99,,2013-10-12 23:22:00,
2013-10-12 16:33:00,53.0,49.0,29.91,WSW,242,18.0,-999.0,86,-99.99,,,-99.99,,2013-10-12 23:33:00,
2013-10-12 16:42:00,53.0,49.0,29.91,WSW,242,18.0,-999.0,86,-99.99,,,-99.99,,2013-10-12 23:42:00,
2013-10-12 16:52:00,53.0,49.0,29.91,WSW,242,18.0,-999.0,86,-99.99,,,-99.99,,2013-10-12 23:52:00,
2013-10-12 17:01:00,53.0,49.0,29.91,WSW,242,18.0,-999.0,86,-99.99,,,-99.99,,2013-10-13 00:01:00,
2013-10-12 18:22:00,53.0,49.0,29.90,SW,230,14.0,-999.0,86,-99.99,,,-99.99,,2013-10-13 01:22:00,
2013-10-12 18:32:00,53.0,49.0,29.90,SW,230,14.0,-999.0,86,-99.99,,,-99.99,,2013-10-13 01:32:00,
2013-10-12 18:42:00,53.0,49.0,29.90,SW,230,14.0,-999.0,86,-99.99,,,-99.99,,2013-10-13 01:42:00,
2013-10-12 18:52:00,53.0,49.0,29.90,SW,230,14.0,-999.0,86,-99.99,,,-99.99,,2013-10-13 01:52:00,
2013-10-12 19:02:00,53.0,49.0,29.90,SW,230,14.0,-999.0,86,-99.99,,,-99.99,,2013-10-13 02:02:00,
2013-10-12 20:23:00,53.0,49.0,29.90,SSW,213,16.0,-999.0,86,-99.99,,,-99.99,,2013-10-13 03:23:00,
2013-10-12 20:34:00,53.0,49.0,29.90,SSW,213,16.0,-999.0,86,-99.99,,,-99.99,,2013-10-13 03:34:00,
2013-10-12 20:45:00,53.0,49.0,29.90,SSW,213,16.0,-999.0,86,-99.99,,,-99.99,,2013-10-13 03:45:00,
2013-10-12 20:54:00,53.0,49.0,29.90,SSW,213,16.0,-999.0,86,-99.99,,,-99.99,,2013-10-13 03:54:00,
2013-10-12 21:02:00,-999.0,-99.9,29.90,SSW,213,16.0,-999.0,-999,-99.99,,,-99.99,,2013-10-13 04:02:00,
2013-10-12 22:23:00,52.0,49.0,29.91,WSW,244,17.0,-999.0,88,-99.99,,,-99.99,,2013-10-13 05:23:00,
2013-10-12 22:34:00,52.0,49.0,29.91,WSW,244,17.0,-999.0,88,-99.99,,,-99.99,,2013-10-13 05:34:00,
2013-10-12 22:43:00,52.0,49.0,29.91,WSW,244,17.0,-999.0,88,-99.99,,,-99.99,,2013-10-13 05:43:00,
2013-10-12 22:52:00,52.0,49.0,29.91,WSW,244,17.0,-999.0,88,-99.99,,,-99.99,,2013-10-13 05:52:00,
2013-10-12 23:02:00,52.0,49.0,29.91,WSW,244,17.0,-999.0,88,-99.99,,,-99.99,,2013-10-13 06:02:00,